Hovedside
METAR-TAF:

METAR-TAF

Lufthavner :

Lanzarote, Spania

Lanzarote lufthavn

breddegrad: 28-57N, lengdegrad: 013-36W, høyde over havet: 14 m

Gjeldene værobservasjon

Denne rapporten ble laget for 43 minutter siden, klokken 21:00 UTC
Vind 14 kt fra Nord-nordøst med vindkast opp mot 25 kt, skiftende mellom Nord og Nordøst
Temperatur 22°C
Luftfuktighet 73%
Trykk 1019 hPa
Sikt 10 km eller mer
Få skyer i en høyde av 2000 ft

METAR: GCRR 042100Z 03014G25KT 350V050 9999 FEW020 22/17 Q1019

Tid: 22:43 (21:43 UTC)

Varsel

Denne rapporten ble laget for 1 time og 43 minutter siden, klokken 20:00 UTC
Varsel gyldig fra 04. klokken 21 UTC til 05. klokken 21 UTC
Vind 13 kt fra Nord-nordøst
Sikt 10 km eller mer
Spredte skyer i en høyde av 2500 ft
Sannsynlighet 30% :
Midlertidig
fra 05. klokken 08 UTC til 05. klokken 20 UTC
Vind 19 kt fra Nord-nordøst med vindkast opp mot 29 kt

TAF: GCRR 042000Z 0421/0521 02013KT 9999 SCT025 TX28/0514Z TN20/0506Z PROB30 TEMPO 0508/0520 02019G29KT

Værobservasjoner og værvarsel for over 4000 flyplasser (METAR- og TAF-rapporter).

Tilgjengelige stasjoner er representert av de røde og gule prikkene på kartet.

Hold musepekeren over prikken for å se navnet på stasjonen.

Klikk så for å se værobservasjoner og -varsler.

For å forandre kartet kan du klikke på den grønne knappen med svart kryss for å zoome inn, på den grønne knappen med strek for å zoome ut, eller på de grønne pilene for å se tilstøtende kart.


METAR-TAF: